Aeroporto :
LOGIN :

Iscrizione | Disclaimer

   EN    FR    IT 

 










Sommario :    VFR   VFR Marginale   IFR   IFR Intensivo   IFR Molto Intensivo
Visibilità : 
Base nubi : 
>= 8 km
>= 3000ft
5 / 8 km
1000 / 3000 ft
1500m / 5 km
500 / 1000 ft
800 / 1500m
200 / 500 ft
< 800m
< 200 ft
Simboli :   Temporali  Nebbia  Neve Forte  Precipitazioni Forti  Vento > 20 kt
SIGMETs :   Varie  Temporali  Ghiacco  Turbolenza  Onda orograficha  Ceneri Vulcaniche







- Altitudine del aeroporto : 295 ft
- Codice IATA : BWE


EDVE - Braunschweig

ULTIMO METAR :
  • 210850Z 35004KT 290V080 9999 FEW016 19/14 Q1005

METARs OBSOLETI :
  • 210820Z 35006KT 320V040 9999 FEW011 SCT014 BKN019 18/14 Q1005
  • 210750Z 06004KT 310V110 9999 FEW014 SCT032 BKN039 18/14 Q1005
  • 210720Z 02004KT 300V100 9999 FEW012 BKN015 18/14 Q1005
  • 210650Z VRB04KT 9999 FEW006 SCT008 BKN024 17/16 Q1004
  • 210620Z 07004KT 010V120 7000 SCT006 BKN011 BKN024 16/15 Q1004
  • 210550Z VRB03KT 7000 FEW004 BKN006 OVC019 16/15 Q1004

TAF TAF EDVE
Valido dal 21 a 09 ore il 21 a 18 ore UTC


210800Z 2109/2118 36004KT 9999 SCT008 BKN020
BECMG 2109/2111 30009KT
TEMPO 2113/2118 BKN012
Nessun NOTAM noto per questo aeroporto.



MetMap, La meteo Aeronautica in un colpo d'occhio ! - Copyright ORBIFLY Dicembre 2007 - Disclaimer

ORBIFLY MET'MAP TEAM :

Programmazione e sviluppo : Alexandra Zaïnal
Concezione e sviluppo : Baudouin d'Aumeries
Co-Programmazione e sviluppo : Marc-Olivier Méhu
Supporto tecnico e logistico : Manuel Goepfert
Aiuto per la traduzione : Arnaldo La Scala

Contatto : metmap@orbifly.com




FONTI E CREDITI :

   NOAA